Worthington, Missouri
Current Conditions -  °F | °C
As of 9:50 AM on Friday 21 Nov 2014 (Local Time) from KTVK Reporting Station
Clear Clear  
Wind Chill: 16°   Ceiling: Unl
Heat Index: 27°   Visibility: 10mi
Dew Point: 16°   Wind: 13mph
Humidity: 64%   Direction: 130°SE
Pressure: 30.33"   Gusts: 17mph
Location:  40.41°N, 92.69°W
Report Text: KTVK 211550Z AUTO 13011G15KT 10SM CLR M03/M09 A3033 RMK AO2
Loading
Personal Weather Stations






























Interactive Weather Map New forecast layout! Learn more

10-Day Weather Forecast

Advertisements
Track Severe Weather on mobile